Time,TemperatureF,DewpointF,PressureIn,WindDirection,WindDirectionDegrees,WindSpeedMPH,WindSpeedGustMPH,Humidity,HourlyPrecipIn,Conditions,Clouds,dailyrainin,SolarRadiationWatts/m^2,SoftwareType,DateUTC
2013-07-02 00:02:00,61.2,57.0,30.07,North,11,1.0,6.0,87,0.00,,,0.00,0,weatherlink.com 1.10,2013-07-02 05:02:00,
2013-07-02 00:17:00,61.0,58.0,30.07,NE,45,1.0,2.0,88,0.00,,,0.00,0,weatherlink.com 1.10,2013-07-02 05:17:00,
2013-07-02 00:32:00,60.7,58.0,30.07,NE,42,1.0,4.0,89,0.00,,,0.00,0,weatherlink.com 1.10,2013-07-02 05:32:00,
2013-07-02 00:47:00,60.6,57.0,30.07,North,360,2.0,3.0,89,0.00,,,0.00,0,weatherlink.com 1.10,2013-07-02 05:47:00,
2013-07-02 01:02:00,60.3,57.0,30.06,NE,39,1.0,3.0,89,0.00,,,0.00,0,weatherlink.com 1.10,2013-07-02 06:02:00,
2013-07-02 01:17:00,59.9,57.0,30.06,South,190,1.0,3.0,90,0.00,,,0.00,0,weatherlink.com 1.10,2013-07-02 06:17:00,
2013-07-02 02:15:00,60.1,57.0,30.06,North,11,0.0,2.0,89,0.00,,,0.00,0,weatherlink.com 1.10,2013-07-02 07:15:00,
2013-07-02 02:32:00,60.0,57.0,30.06,NNE,32,0.0,2.0,91,0.00,,,0.00,0,weatherlink.com 1.10,2013-07-02 07:32:00,
2013-07-02 02:47:00,59.8,57.0,30.06,NNE,32,0.0,1.0,91,0.00,,,0.00,0,weatherlink.com 1.10,2013-07-02 07:47:00,
2013-07-02 03:02:00,59.3,57.0,30.06,NNE,32,0.0,0.0,92,0.00,,,0.00,0,weatherlink.com 1.10,2013-07-02 08:02:00,
2013-07-02 03:17:00,59.3,57.0,30.06,NNE,32,0.0,2.0,93,0.00,,,0.00,0,weatherlink.com 1.10,2013-07-02 08:17:00,
2013-07-02 03:32:00,59.2,57.0,30.06,NNE,32,0.0,1.0,92,0.00,,,0.00,0,weatherlink.com 1.10,2013-07-02 08:32:00,
2013-07-02 03:47:00,59.3,57.0,30.07,NNE,32,0.0,2.0,92,0.00,,,0.00,0,weatherlink.com 1.10,2013-07-02 08:47:00,
2013-07-02 04:02:00,59.3,57.0,30.06,NNE,32,0.0,1.0,93,0.00,,,0.00,0,weatherlink.com 1.10,2013-07-02 09:02:00,
2013-07-02 04:17:00,58.9,57.0,30.07,NE,39,1.0,2.0,92,0.00,,,0.00,0,weatherlink.com 1.10,2013-07-02 09:17:00,
2013-07-02 04:32:00,59.1,56.0,30.07,NE,42,0.0,3.0,90,0.00,,,0.00,0,weatherlink.com 1.10,2013-07-02 09:32:00,
2013-07-02 04:47:00,58.8,56.0,30.07,NE,40,0.0,2.0,89,0.00,,,0.00,0,weatherlink.com 1.10,2013-07-02 09:47:00,
2013-07-02 05:02:00,58.3,55.0,30.07,NE,40,0.0,1.0,87,0.00,,,0.00,0,weatherlink.com 1.10,2013-07-02 10:02:00,
2013-07-02 05:17:00,58.5,55.0,30.07,NE,41,1.0,2.0,87,0.00,,,0.00,0,weatherlink.com 1.10,2013-07-02 10:17:00,
2013-07-02 05:32:00,58.7,55.0,30.07,NE,41,0.0,2.0,86,0.00,,,0.00,12,weatherlink.com 1.10,2013-07-02 10:32:00,
2013-07-02 05:47:00,59.4,55.0,30.07,ENE,73,0.0,3.0,86,0.00,,,0.00,23,weatherlink.com 1.10,2013-07-02 10:47:00,
2013-07-02 06:02:00,59.5,55.0,30.07,NE,55,1.0,3.0,86,0.00,,,0.00,30,weatherlink.com 1.10,2013-07-02 11:02:00,
2013-07-02 06:17:00,59.4,54.0,30.07,NW,309,0.0,3.0,83,0.00,,,0.00,26,weatherlink.com 1.10,2013-07-02 11:17:00,
2013-07-02 06:32:00,59.2,55.0,30.07,ENE,69,1.0,3.0,85,0.00,,,0.00,26,weatherlink.com 1.10,2013-07-02 11:32:00,
2013-07-02 06:47:00,59.5,55.0,30.08,NE,34,0.0,5.0,86,0.00,,,0.00,53,weatherlink.com 1.10,2013-07-02 11:47:00,
2013-07-02 07:03:00,60.0,56.0,30.08,ENE,69,1.0,5.0,85,0.00,,,0.00,88,weatherlink.com 1.10,2013-07-02 12:03:00,
2013-07-02 07:17:00,60.5,56.0,30.09,NW,315,1.0,5.0,84,0.00,,,0.00,114,weatherlink.com 1.10,2013-07-02 12:17:00,
2013-07-02 07:32:00,60.7,56.0,30.09,ENE,71,2.0,4.0,83,0.00,,,0.00,120,weatherlink.com 1.10,2013-07-02 12:32:00,
2013-07-02 07:47:00,61.0,56.0,30.09,ENE,61,1.0,5.0,82,0.00,,,0.00,169,weatherlink.com 1.10,2013-07-02 12:47:00,
2013-07-02 08:03:00,61.4,56.0,30.09,NW,317,2.0,7.0,81,0.00,,,0.00,202,weatherlink.com 1.10,2013-07-02 13:03:00,
2013-07-02 08:18:00,61.4,56.0,30.09,NNE,30,2.0,5.0,81,0.00,,,0.00,192,weatherlink.com 1.10,2013-07-02 13:18:00,
2013-07-02 08:33:00,61.4,56.0,30.09,East,80,3.0,5.0,81,0.00,,,0.00,181,weatherlink.com 1.10,2013-07-02 13:33:00,
2013-07-02 08:48:00,61.4,55.0,30.09,NE,46,1.0,5.0,80,0.00,,,0.00,220,weatherlink.com 1.10,2013-07-02 13:48:00,
2013-07-02 09:03:00,62.2,55.0,30.09,ENE,73,0.0,4.0,77,0.00,,,0.00,378,weatherlink.com 1.10,2013-07-02 14:03:00,
2013-07-02 09:18:00,62.4,55.0,30.09,NE,54,2.0,9.0,76,0.00,,,0.00,378,weatherlink.com 1.10,2013-07-02 14:18:00,
2013-07-02 09:33:00,63.0,55.0,30.09,ENE,74,1.0,7.0,76,0.00,,,0.00,482,weatherlink.com 1.10,2013-07-02 14:33:00,
2013-07-02 09:48:00,62.9,55.0,30.09,NNW,327,1.0,7.0,75,0.00,,,0.00,527,weatherlink.com 1.10,2013-07-02 14:48:00,
2013-07-02 10:03:00,62.7,54.0,30.09,ENE,59,2.0,8.0,74,0.00,,,0.00,499,weatherlink.com 1.10,2013-07-02 15:03:00,
2013-07-02 10:18:00,63.5,55.0,30.09,ENE,67,3.0,7.0,75,0.00,,,0.00,896,weatherlink.com 1.10,2013-07-02 15:18:00,
2013-07-02 10:33:00,64.2,56.0,30.09,NW,325,2.0,8.0,74,0.00,,,0.00,916,weatherlink.com 1.10,2013-07-02 15:33:00,
2013-07-02 10:48:00,64.8,56.0,30.09,East,83,1.0,6.0,74,0.00,,,0.00,842,weatherlink.com 1.10,2013-07-02 15:48:00,
2013-07-02 11:03:00,64.6,56.0,30.09,NNW,333,3.0,7.0,74,0.00,,,0.00,830,weatherlink.com 1.10,2013-07-02 16:03:00,
2013-07-02 11:18:00,64.7,55.0,30.09,North,9,1.0,8.0,71,0.00,,,0.00,853,weatherlink.com 1.10,2013-07-02 16:18:00,
2013-07-02 11:33:00,64.7,55.0,30.09,NE,51,1.0,7.0,71,0.00,,,0.00,856,weatherlink.com 1.10,2013-07-02 16:33:00,
2013-07-02 11:48:00,64.9,56.0,30.09,NW,312,2.0,7.0,73,0.00,,,0.00,881,weatherlink.com 1.10,2013-07-02 16:48:00,
2013-07-02 12:03:00,64.4,56.0,30.09,SE,139,3.0,6.0,75,0.00,,,0.00,807,weatherlink.com 1.10,2013-07-02 17:03:00,
2013-07-02 12:18:00,64.4,55.0,30.09,NNW,334,2.0,8.0,72,0.00,,,0.00,700,weatherlink.com 1.10,2013-07-02 17:18:00,
2013-07-02 12:33:00,63.9,55.0,30.08,ENE,77,2.0,7.0,73,0.00,,,0.00,545,weatherlink.com 1.10,2013-07-02 17:33:00,
2013-07-02 12:48:00,63.5,55.0,30.08,ENE,67,0.0,7.0,75,0.00,,,0.00,504,weatherlink.com 1.10,2013-07-02 17:48:00,
2013-07-02 13:03:00,63.6,56.0,30.08,NNE,13,2.0,6.0,75,0.00,,,0.00,867,weatherlink.com 1.10,2013-07-02 18:03:00,
2013-07-02 13:18:00,64.8,56.0,30.08,East,82,2.0,7.0,73,0.00,,,0.00,698,weatherlink.com 1.10,2013-07-02 18:18:00,
2013-07-02 13:33:00,64.4,56.0,30.08,NW,326,2.0,8.0,74,0.00,,,0.00,1007,weatherlink.com 1.10,2013-07-02 18:33:00,
2013-07-02 13:48:00,63.0,55.0,30.08,ENE,75,3.0,7.0,76,0.00,,,0.00,304,weatherlink.com 1.10,2013-07-02 18:48:00,
2013-07-02 14:03:00,62.1,55.0,30.08,NNE,22,1.0,6.0,77,0.00,,,0.00,288,weatherlink.com 1.10,2013-07-02 19:03:00,
2013-07-02 14:18:00,61.8,56.0,30.08,ENE,63,3.0,8.0,80,0.00,,,0.00,276,weatherlink.com 1.10,2013-07-02 19:18:00,
2013-07-02 14:33:00,61.9,55.0,30.08,NE,53,2.0,5.0,78,0.00,,,0.00,436,weatherlink.com 1.10,2013-07-02 19:33:00,
2013-07-02 14:48:00,62.9,56.0,30.08,NE,39,1.0,7.0,77,0.00,,,0.00,643,weatherlink.com 1.10,2013-07-02 19:48:00,
2013-07-02 15:03:00,62.9,56.0,30.07,NNE,18,0.0,5.0,77,0.00,,,0.00,278,weatherlink.com 1.10,2013-07-02 20:03:00,
2013-07-02 15:18:00,61.7,56.0,30.07,NE,42,2.0,5.0,81,0.00,,,0.00,329,weatherlink.com 1.10,2013-07-02 20:18:00,
2013-07-02 15:33:00,62.3,56.0,30.07,ENE,64,4.0,4.0,81,0.00,,,0.00,253,weatherlink.com 1.10,2013-07-02 20:33:00,
2013-07-02 15:48:00,61.3,56.0,30.07,NE,51,2.0,5.0,82,0.00,,,0.00,172,weatherlink.com 1.10,2013-07-02 20:48:00,
2013-07-02 16:18:00,60.9,56.0,30.06,NE,50,1.0,3.0,85,0.00,,,0.00,162,weatherlink.com 1.10,2013-07-02 21:18:00,
2013-07-02 16:33:00,61.2,56.0,30.06,NNW,336,0.0,4.0,83,0.00,,,0.00,171,weatherlink.com 1.10,2013-07-02 21:33:00,
2013-07-02 16:48:00,61.6,56.0,30.06,ENE,71,1.0,4.0,81,0.00,,,0.00,163,weatherlink.com 1.10,2013-07-02 21:48:00,
2013-07-02 17:03:00,61.4,56.0,30.06,NW,315,2.0,7.0,82,0.00,,,0.00,171,weatherlink.com 1.10,2013-07-02 22:03:00,
2013-07-02 17:18:00,61.8,57.0,30.05,North,11,2.0,6.0,85,0.00,,,0.00,141,weatherlink.com 1.10,2013-07-02 22:18:00,
2013-07-02 17:33:00,61.3,57.0,30.06,NW,324,1.0,8.0,84,0.00,,,0.00,134,weatherlink.com 1.10,2013-07-02 22:33:00,
2013-07-02 17:48:00,60.9,56.0,30.06,East,101,1.0,8.0,84,0.00,,,0.00,116,weatherlink.com 1.10,2013-07-02 22:48:00,
2013-07-02 18:03:00,60.9,56.0,30.05,ENE,59,1.0,4.0,83,0.00,,,0.00,93,weatherlink.com 1.10,2013-07-02 23:03:00,
2013-07-02 18:18:00,61.2,56.0,30.05,ENE,71,4.0,5.0,83,0.00,,,0.00,121,weatherlink.com 1.10,2013-07-02 23:18:00,
2013-07-02 18:33:00,61.3,56.0,30.06,NW,311,5.0,7.0,83,0.00,,,0.00,97,weatherlink.com 1.10,2013-07-02 23:33:00,
2013-07-02 18:48:00,61.3,56.0,30.05,ENE,57,2.0,7.0,83,0.00,,,0.00,105,weatherlink.com 1.10,2013-07-02 23:48:00,
2013-07-02 19:03:00,61.3,57.0,30.05,ENE,70,3.0,4.0,84,0.00,,,0.00,81,weatherlink.com 1.10,2013-07-03 00:03:00,
2013-07-02 19:18:00,61.0,56.0,30.05,West,278,1.0,5.0,84,0.00,,,0.00,81,weatherlink.com 1.10,2013-07-03 00:18:00,
2013-07-02 19:33:00,60.9,56.0,30.05,ENE,60,1.0,7.0,84,0.00,,,0.00,42,weatherlink.com 1.10,2013-07-03 00:33:00,
2013-07-02 19:48:00,60.8,56.0,30.05,West,279,2.0,5.0,84,0.00,,,0.00,21,weatherlink.com 1.10,2013-07-03 00:48:00,
2013-07-02 20:03:00,60.5,56.0,30.05,ENE,57,1.0,5.0,84,0.00,,,0.00,7,weatherlink.com 1.10,2013-07-03 01:03:00,
2013-07-02 20:18:00,60.4,56.0,30.04,ENE,63,2.0,5.0,85,0.00,,,0.00,0,weatherlink.com 1.10,2013-07-03 01:18:00,
2013-07-02 20:33:00,60.2,56.0,30.05,East,92,5.0,5.0,85,0.00,,,0.00,0,weatherlink.com 1.10,2013-07-03 01:33:00,
2013-07-02 20:48:00,60.1,56.0,30.05,NE,42,3.0,6.0,86,0.00,,,0.00,0,weatherlink.com 1.10,2013-07-03 01:48:00,
2013-07-02 21:03:00,59.9,56.0,30.05,ENE,73,1.0,4.0,87,0.00,,,0.00,0,weatherlink.com 1.10,2013-07-03 02:03:00,
2013-07-02 21:18:00,59.9,56.0,30.05,NE,54,1.0,4.0,88,0.00,,,0.00,0,weatherlink.com 1.10,2013-07-03 02:18:00,
2013-07-02 21:48:00,60.0,57.0,30.06,NNW,347,1.0,3.0,88,0.00,,,0.00,0,weatherlink.com 1.10,2013-07-03 02:48:00,
2013-07-02 22:03:00,59.9,57.0,30.06,ENE,65,4.0,4.0,89,0.00,,,0.00,0,weatherlink.com 1.10,2013-07-03 03:03:00,
2013-07-02 22:18:00,60.0,57.0,30.05,NNW,327,1.0,6.0,89,0.00,,,0.00,0,weatherlink.com 1.10,2013-07-03 03:18:00,
2013-07-02 22:33:00,60.1,57.0,30.05,ENE,67,1.0,5.0,89,0.00,,,0.00,0,weatherlink.com 1.10,2013-07-03 03:33:00,
2013-07-02 23:03:00,60.0,57.0,30.04,ENE,59,0.0,4.0,91,0.00,,,0.00,0,weatherlink.com 1.10,2013-07-03 04:03:00,
2013-07-02 23:18:00,59.7,57.0,30.05,ENE,58,0.0,3.0,92,0.00,,,0.00,0,weatherlink.com 1.10,2013-07-03 04:18:00,
2013-07-02 23:33:00,59.6,58.0,30.05,NW,324,1.0,6.0,93,0.00,,,0.00,0,weatherlink.com 1.10,2013-07-03 04:33:00,
2013-07-02 23:49:00,59.7,58.0,30.05,ENE,71,1.0,5.0,94,0.00,,,0.00,0,weatherlink.com 1.10,2013-07-03 04:49:00,